Time;durP1;ratioP1;P1;durP2;ratioP2;P2;SDS_P1;SDS_P2;PMS_P1;PMS_P2;Temp;Humidity;BMP_temperature;BMP_pressure;BME280_temperature;BME280_humidity;BME280_pressure;Samples;Min_cycle;Max_cycle;Signal;HPM_P1;HPM_P2
2022/06/05 00:02:33;;;;;;;9.63;7.85;;;;;;;19.64;66.79;99123.78;5222176;28;20072;-72
2022/06/05 00:05:33;;;;;;;9.95;7.53;;;;;;;19.60;67.22;99117.09;5222868;28;20175;-72
2022/06/05 00:08:32;;;;;;;11.95;8.68;;;;;;;19.56;67.61;99118.50;5186649;28;20056;-72
2022/06/05 00:11:23;;;;;;;10.23;8.50;;;;;;;19.56;67.34;99088.94;5208050;28;20645;-73
2022/06/05 00:14:14;;;;;;;10.95;9.50;;;;;;;19.55;67.17;99094.50;5208038;28;20066;-73
2022/06/05 00:17:09;;;;;;;11.05;8.98;;;;;;;19.46;67.14;99085.78;5207805;28;20059;-72
2022/06/05 00:19:59;;;;;;;9.82;8.82;;;;;;;19.56;67.70;99083.53;5223026;28;20195;-73
2022/06/05 00:22:49;;;;;;;10.00;9.00;;;;;;;19.52;67.11;99087.66;5222482;28;20051;-73
2022/06/05 00:25:51;;;;;;;9.38;8.15;;;;;;;19.39;66.92;99088.44;5222404;28;20055;-72
2022/06/05 00:28:56;;;;;;;11.70;9.27;;;;;;;19.53;67.75;99077.75;5222925;28;20110;-72
2022/06/05 00:31:49;;;;;;;13.30;10.07;;;;;;;19.66;67.52;99073.28;5212517;28;20410;-72
2022/06/05 00:34:42;;;;;;;12.60;10.20;;;;;;;19.72;67.08;99068.97;5207463;28;20072;-72
2022/06/05 00:37:59;;;;;;;13.02;10.65;;;;;;;19.69;67.85;99080.94;5207084;28;20489;-72
2022/06/05 00:41:05;;;;;;;13.52;10.20;;;;;;;19.59;67.83;99082.31;5220842;28;20048;-72
2022/06/05 00:43:59;;;;;;;11.57;10.32;;;;;;;19.52;67.51;99078.78;5222361;28;20060;-72
2022/06/05 00:46:51;;;;;;;15.38;9.80;;;;;;;19.43;67.11;99086.16;5221871;28;20518;-72
2022/06/05 00:49:50;;;;;;;11.40;9.82;;;;;;;19.49;68.03;99082.69;5216455;28;20099;-72
2022/06/05 00:52:45;;;;;;;10.65;9.45;;;;;;;19.46;67.21;99078.53;5206704;28;20060;-73
2022/06/05 00:55:42;;;;;;;11.15;9.18;;;;;;;19.48;67.24;99089.94;5207692;28;20049;-72
2022/06/05 00:58:32;;;;;;;14.98;9.23;;;;;;;19.39;67.90;99090.28;5222104;28;20059;-72
2022/06/05 01:01:22;;;;;;;10.57;9.48;;;;;;;19.27;68.12;99084.66;5221789;28;20055;-72
2022/06/05 01:04:13;;;;;;;15.13;11.07;;;;;;;19.43;68.91;99100.44;5210832;28;20063;-72
2022/06/05 01:07:04;;;;;;;11.30;10.02;;;;;;;19.53;68.65;99110.00;5227120;28;20078;-72
2022/06/05 01:09:54;;;;;;;11.93;10.18;;;;;;;19.54;68.57;99104.44;5215560;28;20186;-72
2022/06/05 01:12:57;;;;;;;14.65;9.70;;;;;;;19.52;68.34;99106.50;5225346;28;20706;-73
2022/06/05 01:15:47;;;;;;;13.95;10.18;;;;;;;19.43;67.72;99105.81;5226052;28;20509;-71
2022/06/05 01:18:54;;;;;;;14.38;10.45;;;;;;;19.29;68.65;99093.34;5225364;28;20049;-72
2022/06/05 01:22:13;;;;;;;14.32;11.15;;;;;;;19.39;68.92;99125.25;5210348;28;20499;-73
2022/06/05 01:25:34;;;;;;;15.75;11.90;;;;;;;19.38;70.03;99137.03;5224200;28;20143;-73
2022/06/05 01:28:28;;;;;;;15.90;11.18;;;;;;;19.34;69.75;99123.16;5223905;28;20126;-72
2022/06/05 01:31:31;;;;;;;16.27;11.20;;;;;;;19.34;69.20;99119.63;5225382;28;20456;-73
2022/06/05 01:34:34;;;;;;;14.48;10.70;;;;;;;19.48;68.56;99141.03;5225796;28;20142;-71
2022/06/05 01:37:35;;;;;;;16.27;11.05;;;;;;;19.47;68.42;99127.78;5210395;28;20492;-70
2022/06/05 01:40:37;;;;;;;10.80;9.65;;;;;;;19.34;67.81;99116.94;5210309;28;20131;-72
2022/06/05 01:43:34;;;;;;;12.02;9.93;;;;;;;19.36;67.90;99112.19;5220019;28;20056;-73
2022/06/05 01:46:35;;;;;;;14.07;10.80;;;;;;;19.52;68.51;99119.94;5210626;28;20110;-72
2022/06/05 01:49:35;;;;;;;13.98;11.40;;;;;;;19.61;68.50;99118.75;5210367;28;20128;-73
2022/06/05 01:52:33;;;;;;;14.75;11.52;;;;;;;19.32;68.03;99075.97;5225413;28;20130;-73
2022/06/05 01:55:32;;;;;;;15.43;12.10;;;;;;;19.54;68.61;99112.53;5216714;28;20049;-73
2022/06/05 01:58:31;;;;;;;13.90;11.10;;;;;;;19.57;68.44;99101.38;5221297;28;20060;-72
2022/06/05 02:01:34;;;;;;;14.65;12.13;;;;;;;19.66;68.63;99093.97;5224849;28;20045;-73
2022/06/05 02:04:36;;;;;;;13.37;11.33;;;;;;;19.60;68.57;99074.06;5225169;28;20126;-70
2022/06/05 02:07:33;;;;;;;14.80;11.95;;;;;;;19.68;68.50;99068.53;5224548;28;20502;-73
2022/06/05 02:10:29;;;;;;;15.35;11.98;;;;;;;19.71;68.27;99048.47;5224607;28;20514;-70
2022/06/05 02:13:20;;;;;;;15.32;11.77;;;;;;;19.56;68.24;99037.00;5225147;28;20096;-73
2022/06/05 02:16:10;;;;;;;13.88;11.70;;;;;;;19.46;68.55;99032.81;5225043;28;20049;-73
2022/06/05 02:19:04;;;;;;;14.50;12.18;;;;;;;19.58;68.42;99034.94;5218708;28;20080;-73
2022/06/05 02:22:01;;;;;;;14.50;12.57;;;;;;;19.44;68.96;99005.31;5224582;28;20053;-73
2022/06/05 02:24:53;;;;;;;12.77;11.48;;;;;;;19.49;67.90;99007.38;5223844;28;20049;-73
2022/06/05 02:27:44;;;;;;;13.52;12.13;;;;;;;19.39;68.48;98980.06;5209410;28;20545;-72
2022/06/05 02:31:07;;;;;;;15.05;12.70;;;;;;;19.57;68.68;98998.31;5208750;28;20135;-72
2022/06/05 02:34:16;;;;;;;17.38;12.23;;;;;;;19.63;68.47;98989.44;5197953;28;20127;-72
2022/06/05 02:37:28;;;;;;;17.25;12.85;;;;;;;19.60;68.48;98968.31;5214207;28;20553;-72
2022/06/05 02:40:41;;;;;;;16.63;12.95;;;;;;;19.69;68.43;98935.69;5223998;28;20183;-72
2022/06/05 02:43:43;;;;;;;15.48;13.38;;;;;;;19.58;68.67;98920.13;5212472;28;20056;-72
2022/06/05 02:46:41;;;;;;;18.38;13.20;;;;;;;19.53;68.82;98903.75;5223834;28;20117;-72
2022/06/05 02:49:38;;;;;;;14.98;12.93;;;;;;;19.50;68.74;98896.09;5224517;28;20183;-72
2022/06/05 02:52:31;;;;;;;14.82;12.45;;;;;;;19.53;68.32;98890.31;5223652;28;20053;-72
2022/06/05 02:55:21;;;;;;;17.60;13.23;;;;;;;19.52;68.67;98885.97;5210453;28;20079;-72
2022/06/05 02:58:13;;;;;;;14.40;12.32;;;;;;;19.53;68.67;98895.69;5224173;28;20053;-72
2022/06/05 03:04:12;;;;;;;14.57;12.50;;;;;;;19.52;68.63;98898.59;5223621;28;20649;-72
2022/06/05 03:07:04;;;;;;;16.17;13.88;;;;;;;19.46;69.08;98873.34;5208003;28;20044;-72
2022/06/05 03:09:55;;;;;;;17.17;13.57;;;;;;;19.57;68.94;98890.72;5208695;28;20220;-72
2022/06/05 03:12:45;;;;;;;20.67;13.93;;;;;;;19.63;68.56;98887.22;5203683;28;20163;-72
2022/06/05 03:15:35;;;;;;;15.50;13.25;;;;;;;19.74;68.22;98904.69;5223398;28;20455;-72
2022/06/05 03:18:26;;;;;;;16.75;13.75;;;;;;;19.84;68.34;98905.94;5208467;28;20498;-72
2022/06/05 03:21:17;;;;;;;17.40;13.80;;;;;;;19.99;67.84;98905.72;5208752;28;20072;-72
2022/06/05 03:24:07;;;;;;;18.98;14.70;;;;;;;19.96;67.95;98903.44;5223363;28;20055;-72
2022/06/05 03:26:58;;;;;;;16.63;13.85;;;;;;;20.07;67.55;98902.00;5222687;28;20151;-72
2022/06/05 03:29:48;;;;;;;20.30;14.90;;;;;;;19.78;68.75;98885.22;5208508;28;20566;-72
2022/06/05 03:32:39;;;;;;;20.55;14.35;;;;;;;19.93;67.70;98872.41;5207213;28;20139;-72
2022/06/05 03:35:29;;;;;;;17.83;14.43;;;;;;;19.81;68.32;98867.84;5223188;28;20126;-72
2022/06/05 03:38:19;;;;;;;15.95;14.32;;;;;;;19.91;68.02;98879.03;5207956;28;20052;-72
2022/06/05 03:41:10;;;;;;;16.83;13.75;;;;;;;19.99;68.30;98884.19;5222584;28;20079;-72
2022/06/05 03:44:00;;;;;;;15.13;13.55;;;;;;;20.14;67.33;98892.06;5207907;28;20061;-72
2022/06/05 03:46:51;;;;;;;15.43;13.40;;;;;;;20.03;67.76;98898.88;5222624;28;20126;-73
2022/06/05 03:49:41;;;;;;;16.88;13.20;;;;;;;20.09;67.38;98916.88;5208012;28;20045;-72
2022/06/05 03:52:31;;;;;;;13.98;12.48;;;;;;;20.08;67.32;98917.94;5223566;28;20045;-72
2022/06/05 03:55:22;;;;;;;14.73;12.65;;;;;;;20.01;67.75;98938.63;5207415;28;20064;-72
2022/06/05 03:58:13;;;;;;;14.75;12.95;;;;;;;19.98;67.46;98947.13;5207765;28;20518;-72
2022/06/05 04:01:06;;;;;;;15.77;12.35;;;;;;;19.99;68.01;98980.25;5207095;28;20539;-72
2022/06/05 04:03:57;;;;;;;14.07;12.68;;;;;;;20.06;68.27;99005.28;5207533;28;20086;-72
2022/06/05 04:06:48;;;;;;;17.80;13.52;;;;;;;19.99;68.26;99007.97;5221657;28;20763;-72
2022/06/05 04:09:38;;;;;;;17.63;13.82;;;;;;;20.08;68.47;99022.91;5209601;28;20107;-72
2022/06/05 04:12:28;;;;;;;18.08;14.27;;;;;;;20.25;68.36;99052.97;5222233;28;20095;-72
2022/06/05 04:15:19;;;;;;;19.85;15.05;;;;;;;19.55;71.05;99048.78;5222647;28;20115;-72
2022/06/05 04:18:09;;;;;;;18.13;14.65;;;;;;;20.14;68.83;99038.25;5222774;28;20052;-72
2022/06/05 04:20:59;;;;;;;21.02;15.93;;;;;;;19.77;71.09;99036.06;5222269;28;20557;-72
2022/06/05 04:23:51;;;;;;;19.38;16.17;;;;;;;19.44;72.41;99042.13;5222713;28;20059;-72
2022/06/05 04:26:42;;;;;;;17.75;15.65;;;;;;;19.79;71.80;99040.22;5207803;28;20087;-72
2022/06/05 04:29:33;;;;;;;19.13;15.05;;;;;;;19.81;71.12;99010.44;5208703;28;20456;-71
2022/06/05 04:32:23;;;;;;;20.55;15.77;;;;;;;19.66;71.74;98987.19;5222208;28;20049;-72
2022/06/05 04:35:13;;;;;;;19.90;15.65;;;;;;;19.79;70.98;98980.22;5207683;28;20049;-73
2022/06/05 04:38:04;;;;;;;24.10;16.85;;;;;;;20.13;70.17;98961.22;5223132;28;20182;-73
2022/06/05 04:40:54;;;;;;;21.77;17.02;;;;;;;19.83;70.55;98914.19;5197381;28;20061;-73
2022/06/05 04:43:45;;;;;;;18.80;16.58;;;;;;;19.86;70.83;98925.34;5211802;28;20056;-73
2022/06/05 04:46:36;;;;;;;25.65;16.70;;;;;;;19.95;70.59;98931.38;5211622;28;20473;-73
2022/06/05 04:49:27;;;;;;;22.38;16.20;;;;;;;19.89;70.58;98949.16;5197768;28;20048;-73
2022/06/05 04:52:17;;;;;;;18.23;16.13;;;;;;;19.85;71.18;98958.69;5211467;28;20490;-73
2022/06/05 04:55:08;;;;;;;20.80;16.63;;;;;;;19.97;70.67;98987.69;5211915;28;20714;-73
2022/06/05 04:57:58;;;;;;;18.55;16.15;;;;;;;20.05;70.32;99011.72;5211435;28;20056;-72
2022/06/05 05:00:48;;;;;;;24.02;17.52;;;;;;;19.72;72.09;99042.06;5226443;28;20076;-70
2022/06/05 05:03:39;;;;;;;19.00;16.85;;;;;;;19.74;72.19;99034.63;5214245;28;20057;-73
2022/06/05 05:06:32;;;;;;;21.60;18.25;;;;;;;19.83;72.19;99052.22;5210207;28;20372;-71
2022/06/05 05:09:22;;;;;;;19.38;17.10;;;;;;;19.69;72.79;99064.81;5225690;28;20053;-71
2022/06/05 05:12:12;;;;;;;25.73;18.33;;;;;;;19.64;72.78;99083.44;5225888;28;20041;-72
2022/06/05 05:15:03;;;;;;;23.13;18.92;;;;;;;19.66;73.13;99102.88;5225616;28;20418;-72
2022/06/05 05:17:53;;;;;;;27.00;18.98;;;;;;;19.74;73.09;99117.19;5225885;28;20147;-72
2022/06/05 05:20:43;;;;;;;26.83;19.90;;;;;;;19.80;73.08;99124.44;5210808;28;20522;-73
2022/06/05 05:23:34;;;;;;;24.20;18.58;;;;;;;19.52;73.86;99127.19;5210748;28;20609;-73
2022/06/05 05:26:27;;;;;;;20.67;18.13;;;;;;;19.67;72.22;99130.63;5225653;28;20044;-73
2022/06/05 05:29:18;;;;;;;24.77;18.55;;;;;;;19.43;73.50;99137.25;5211114;28;20407;-73
2022/06/05 05:32:09;;;;;;;25.77;19.80;;;;;;;19.83;72.36;99143.72;5224918;28;20178;-73
2022/06/05 05:34:59;;;;;;;27.35;18.65;;;;;;;19.71;72.23;99127.31;5210840;28;20411;-73
2022/06/05 05:37:50;;;;;;;29.92;19.23;;;;;;;19.66;72.23;99129.75;5209704;28;20503;-72
2022/06/05 05:43:49;;;;;;;27.17;18.30;;;;;;;19.74;71.49;99077.66;5225695;28;20087;-72
2022/06/05 05:46:41;;;;;;;24.17;19.25;;;;;;;19.81;71.80;99053.47;5210561;28;20063;-72
2022/06/05 05:49:31;;;;;;;30.23;20.50;;;;;;;19.60;71.92;99012.22;5225712;28;20131;-72
2022/06/05 05:52:23;;;;;;;24.38;19.80;;;;;;;19.53;72.93;98986.31;5224980;28;20428;-73
2022/06/05 05:55:19;;;;;;;26.35;20.00;;;;;;;19.17;73.39;98937.19;5214445;28;20056;-72
2022/06/05 05:58:10;;;;;;;27.92;20.33;;;;;;;18.13;77.12;98928.22;5225555;28;20056;-71
2022/06/05 06:01:02;;;;;;;26.67;21.58;;;;;;;17.99;78.05;98957.63;5225056;28;20048;-73
2022/06/05 06:03:53;;;;;;;28.25;21.42;;;;;;;18.51;76.57;99030.75;5225404;28;20513;-72
2022/06/05 06:06:45;;;;;;;28.00;23.05;;;;;;;18.83;75.27;99050.84;5224219;28;20055;-72
2022/06/05 06:09:36;;;;;;;33.42;22.83;;;;;;;19.29;74.30;99081.75;5225348;28;20048;-73
2022/06/05 06:12:27;;;;;;;30.48;22.70;;;;;;;19.39;73.99;99099.19;5225319;28;20067;-73
2022/06/05 06:15:17;;;;;;;31.75;22.90;;;;;;;19.45;73.83;99086.81;5209732;28;20060;-73
2022/06/05 06:18:07;;;;;;;27.77;22.60;;;;;;;19.75;72.72;99079.31;5216382;28;20049;-74
2022/06/05 06:20:57;;;;;;;26.75;22.20;;;;;;;19.69;72.89;99083.63;5224642;28;20068;-71
2022/06/05 06:23:47;;;;;;;27.23;22.70;;;;;;;19.84;72.78;99032.38;5204835;28;20154;-73
2022/06/05 06:26:39;;;;;;;27.00;22.65;;;;;;;19.73;72.71;99018.69;5223328;28;20047;-74
2022/06/05 06:29:29;;;;;;;29.50;23.30;;;;;;;19.61;72.67;99019.25;5223568;28;20059;-73
2022/06/05 06:32:19;;;;;;;33.80;24.08;;;;;;;19.70;72.18;99061.09;5222831;28;20051;-73
2022/06/05 06:35:10;;;;;;;30.52;22.83;;;;;;;19.82;72.12;99049.75;5209373;28;20119;-74
2022/06/05 06:38:00;;;;;;;29.58;23.30;;;;;;;19.48;72.78;99060.34;5224915;28;20052;-74
2022/06/05 06:40:58;;;;;;;29.17;23.13;;;;;;;19.64;72.78;99045.78;5208984;28;20056;-74
2022/06/05 06:43:49;;;;;;;34.20;23.98;;;;;;;19.55;72.47;98979.69;5224401;28;20052;-73
2022/06/05 06:46:40;;;;;;;29.00;23.45;;;;;;;19.24;74.05;99010.59;5209264;28;20162;-72
2022/06/05 06:49:30;;;;;;;27.75;23.05;;;;;;;19.28;73.45;98994.91;5209648;28;20048;-74
2022/06/05 06:52:21;;;;;;;27.70;22.20;;;;;;;19.69;72.73;98970.66;5201283;28;20044;-71
2022/06/05 06:55:16;;;;;;;28.75;23.20;;;;;;;19.48;73.29;98962.72;5222952;28;20117;-73
2022/06/05 06:58:06;;;;;;;31.27;23.73;;;;;;;19.21;74.62;98941.13;5224324;28;20518;-73
2022/06/05 07:00:57;;;;;;;26.55;22.33;;;;;;;19.45;73.45;98931.66;5223006;28;20125;-72
2022/06/05 07:03:47;;;;;;;26.92;22.50;;;;;;;19.39;73.35;98916.34;5223556;28;20431;-73
2022/06/05 07:06:38;;;;;;;27.25;22.88;;;;;;;19.58;72.64;98912.06;5223587;28;20138;-73
2022/06/05 07:09:28;;;;;;;30.90;23.20;;;;;;;19.43;72.27;98887.19;5200549;28;20098;-74
2022/06/05 07:12:21;;;;;;;23.80;20.67;;;;;;;18.96;74.68;98884.34;5199363;28;20052;-74
2022/06/05 07:15:11;;;;;;;29.55;21.73;;;;;;;19.30;73.45;98842.28;5223815;28;20186;-73
2022/06/05 07:18:04;;;;;;;21.45;17.48;;;;;;;19.17;73.70;98826.97;5220793;28;20048;-72
2022/06/05 07:20:54;;;;;;;21.90;17.48;;;;;;;19.40;73.51;98815.00;5218020;28;20549;-74
2022/06/05 07:23:45;;;;;;;22.95;17.98;;;;;;;19.12;75.34;98820.53;5205439;28;20068;-73
2022/06/05 07:26:36;;;;;;;22.48;18.15;;;;;;;19.46;73.50;98801.56;5218859;28;20048;-73
2022/06/05 07:29:26;;;;;;;27.70;18.50;;;;;;;19.36;73.91;98814.59;5200102;28;20053;-75
2022/06/05 07:32:17;;;;;;;23.50;18.42;;;;;;;19.45;73.83;98825.97;5222804;28;20095;-74
2022/06/05 07:35:11;;;;;;;25.27;18.95;;;;;;;19.52;74.22;98808.00;5208589;28;20430;-75
2022/06/05 07:38:02;;;;;;;20.73;17.25;;;;;;;19.64;72.16;98752.59;5227635;28;20045;-75
2022/06/05 07:41:00;;;;;;;21.77;16.10;;;;;;;19.52;73.10;98764.13;5200446;28;20079;-75
2022/06/05 07:43:50;;;;;;;18.60;14.07;;;;;;;19.12;74.47;98815.16;5202730;28;20522;-75
2022/06/05 07:46:41;;;;;;;18.25;13.73;;;;;;;19.37;73.71;98853.03;5215859;28;20095;-71
2022/06/05 07:49:31;;;;;;;17.92;13.63;;;;;;;19.22;73.76;98823.66;5212726;28;20534;-72
2022/06/05 07:55:30;;;;;;;20.20;13.02;;;;;;;19.62;72.45;98816.47;5207305;28;20049;-74
2022/06/05 07:58:20;;;;;;;16.35;8.65;;;;;;;19.95;69.95;98827.25;5206448;28;20057;-72
2022/06/05 08:01:10;;;;;;;12.05;7.95;;;;;;;18.86;73.20;98822.13;5210655;28;20110;-71
2022/06/05 08:04:01;;;;;;;11.48;7.45;;;;;;;18.72;73.38;98823.94;5222703;28;20056;-74
2022/06/05 08:06:52;;;;;;;10.52;6.90;;;;;;;19.10;73.71;98820.72;5222379;28;20060;-72
2022/06/05 08:09:43;;;;;;;9.13;7.32;;;;;;;19.39;72.60;98832.19;5210388;28;20206;-73
2022/06/05 08:12:35;;;;;;;12.85;7.57;;;;;;;19.62;72.44;98832.59;5204789;28;20044;-72
2022/06/05 08:15:25;;;;;;;9.93;8.10;;;;;;;19.87;71.44;98823.97;5217160;28;20057;-73
2022/06/05 08:18:15;;;;;;;13.32;8.82;;;;;;;20.10;70.75;98834.31;5222482;28;20049;-71
2022/06/05 08:21:05;;;;;;;12.05;8.82;;;;;;;19.94;70.66;98803.25;5204542;28;20048;-72
2022/06/05 08:23:55;;;;;;;8.30;6.45;;;;;;;19.38;72.60;98793.72;5221279;28;20071;-72
2022/06/05 08:26:45;;;;;;;7.78;6.63;;;;;;;19.91;71.05;98806.38;5222043;28;20055;-73
2022/06/05 08:29:36;;;;;;;8.52;6.18;;;;;;;20.61;68.83;98837.09;5221034;28;20061;-71
2022/06/05 08:32:28;;;;;;;8.00;6.30;;;;;;;20.80;69.00;98842.63;5218907;28;20048;-73
2022/06/05 08:35:18;;;;;;;9.98;6.50;;;;;;;20.82;69.01;98829.75;5221206;28;20045;-70
2022/06/05 08:41:27;;;;;;;10.60;7.57;;;;;;;21.15;69.45;98826.06;5216139;28;20504;-74
2022/06/05 08:44:38;;;;;;;8.57;5.93;;;;;;;21.87;66.03;98826.63;5216711;28;20105;-74
2022/06/05 08:47:39;;;;;;;11.18;6.47;;;;;;;21.84;66.31;98813.59;5217739;28;20142;-72
2022/06/05 08:50:38;;;;;;;6.55;5.53;;;;;;;21.71;67.66;98825.31;5201791;28;20048;-72
2022/06/05 08:53:43;;;;;;;10.77;5.65;;;;;;;22.04;68.04;98816.91;5218185;28;20075;-71
2022/06/05 08:56:36;;;;;;;6.80;5.07;;;;;;;22.47;66.76;98819.63;5218935;28;20415;-72
2022/06/05 08:59:43;;;;;;;8.35;4.68;;;;;;;22.26;66.99;98810.09;5221901;28;20052;-75
2022/06/05 09:02:44;;;;;;;9.90;3.90;;;;;;;21.57;68.42;98809.22;5192650;28;20056;-72
2022/06/05 09:05:45;;;;;;;7.72;3.72;;;;;;;21.65;68.22;98823.47;5219903;28;20156;-72
2022/06/05 09:08:43;;;;;;;6.00;3.17;;;;;;;21.83;66.75;98831.66;5212487;28;20045;-73
2022/06/05 09:11:44;;;;;;;5.90;2.80;;;;;;;21.43;67.31;98841.94;5213802;28;20487;-75
2022/06/05 09:14:38;;;;;;;4.15;2.90;;;;;;;21.88;67.88;98829.09;5211457;28;20057;-75
2022/06/05 09:17:28;;;;;;;3.65;3.08;;;;;;;22.19;66.91;98824.72;5200900;28;20509;-74
2022/06/05 09:20:21;;;;;;;3.97;2.80;;;;;;;22.22;66.25;98835.09;5213326;28;20056;-74
2022/06/05 09:23:37;;;;;;;4.88;2.70;;;;;;;22.38;65.14;98834.47;5222060;28;20056;-74
2022/06/05 09:26:42;;;;;;;2.70;2.50;;;;;;;22.81;63.99;98830.84;5223329;28;20054;-73
2022/06/05 09:29:56;;;;;;;6.45;2.70;;;;;;;22.89;64.54;98835.97;5226674;28;20580;-75
2022/06/05 09:33:25;;;;;;;8.27;2.22;;;;;;;22.95;65.68;98858.59;5212205;28;20563;-73
2022/06/05 09:36:18;;;;;;;4.15;2.63;;;;;;;23.48;62.94;98838.09;5225341;28;20582;-78
2022/06/05 09:39:42;;;;;;;3.05;1.88;;;;;;;23.81;60.09;98848.47;5206083;28;20128;-76
2022/06/05 09:43:11;;;;;;;3.50;1.80;;;;;;;23.82;61.65;98863.63;5206805;28;20523;-76
2022/06/05 09:46:08;;;;;;;4.05;2.17;;;;;;;23.63;60.78;98868.28;5170090;28;20056;-74
2022/06/05 09:49:20;;;;;;;3.47;2.25;;;;;;;24.04;57.82;98861.19;5210113;28;20484;-73
2022/06/05 09:52:24;;;;;;;2.97;1.88;;;;;;;24.27;57.37;98857.66;5225354;28;20073;-74
2022/06/05 09:55:19;;;;;;;6.68;2.20;;;;;;;24.51;56.83;98864.75;5212181;28;20128;-74
2022/06/05 09:58:25;;;;;;;8.07;2.35;;;;;;;24.08;59.95;98881.34;5209482;28;20115;-75
2022/06/05 10:01:34;;;;;;;3.75;2.08;;;;;;;24.25;58.27;98885.00;5204742;28;20049;-74
2022/06/05 10:04:30;;;;;;;5.53;2.50;;;;;;;24.69;60.30;98899.03;5220531;28;20154;-74
2022/06/05 10:07:52;;;;;;;6.85;2.08;;;;;;;24.48;58.06;98897.75;5223881;28;20090;-74
2022/06/05 10:10:45;;;;;;;3.67;2.17;;;;;;;24.69;57.94;98909.03;5205723;28;20096;-73
2022/06/05 10:13:56;;;;;;;5.60;2.17;;;;;;;24.83;56.91;98899.59;5207265;28;20495;-72
2022/06/05 10:16:56;;;;;;;2.42;2.10;;;;;;;24.70;58.67;98919.66;5219054;28;20060;-74
2022/06/05 10:20:13;;;;;;;3.15;1.52;;;;;;;24.84;56.91;98918.34;5212488;28;20519;-73
2022/06/05 10:23:39;;;;;;;2.85;1.48;;;;;;;25.09;56.06;98922.66;5216838;28;20066;-73
2022/06/05 10:26:37;;;;;;;6.53;1.80;;;;;;;26.00;56.05;98931.75;5202498;28;20493;-75
2022/06/05 10:29:44;;;;;;;5.10;2.00;;;;;;;26.33;56.98;98929.31;5224556;28;20581;-75
2022/06/05 10:32:43;;;;;;;6.90;2.00;;;;;;;26.47;56.25;98922.44;5205738;28;20493;-72
2022/06/05 10:35:52;;;;;;;3.58;1.60;;;;;;;26.99;52.57;98921.28;5222540;28;20565;-73
2022/06/05 10:39:04;;;;;;;2.75;1.50;;;;;;;26.48;54.11;98915.97;5208306;28;20056;-75
2022/06/05 10:41:54;;;;;;;7.22;1.60;;;;;;;26.33;55.20;98904.84;5217711;28;20743;-75
2022/06/05 10:45:03;;;;;;;2.78;1.40;;;;;;;25.63;55.84;98908.78;5209348;28;20037;-71
2022/06/05 10:47:56;;;;;;;2.65;1.40;;;;;;;25.26;57.20;98904.56;5224720;28;20049;-72
2022/06/05 10:51:03;;;;;;;6.97;1.77;;;;;;;24.68;59.24;98908.22;5223494;28;20048;-75
2022/06/05 10:54:12;;;;;;;3.08;1.50;;;;;;;24.56;58.57;98878.41;5223682;28;20144;-75
2022/06/05 10:57:15;;;;;;;4.75;1.90;;;;;;;24.14;59.92;98892.06;5223546;28;20048;-79
2022/06/05 11:00:17;;;;;;;4.25;1.60;;;;;;;24.61;60.64;98880.41;5223134;28;20053;-73
2022/06/05 11:03:35;;;;;;;4.68;1.70;;;;;;;25.05;60.55;98880.78;5221293;28;20194;-75
2022/06/05 11:06:35;;;;;;;4.10;1.67;;;;;;;24.91;60.87;98863.16;5223843;28;20057;-72
2022/06/05 11:09:45;;;;;;;3.55;1.58;;;;;;;24.57;60.64;98852.16;5223359;28;20060;-72
2022/06/05 11:15:59;;;;;;;5.57;2.03;;;;;;;23.41;63.94;98860.69;5214199;28;20124;-70
2022/06/05 11:19:08;;;;;;;7.18;2.35;;;;;;;23.97;62.64;98852.34;5217033;28;20095;-69
2022/06/05 11:22:02;;;;;;;5.95;2.00;;;;;;;23.08;64.30;98860.28;5214381;28;20698;-70
2022/06/05 11:25:29;;;;;;;4.68;2.15;;;;;;;23.79;62.82;98858.69;5216167;28;20045;-70
2022/06/05 11:28:28;;;;;;;9.60;1.85;;;;;;;24.29;61.93;98867.19;5220705;28;20075;-70
2022/06/05 11:31:56;;;;;;;3.92;2.05;;;;;;;24.56;61.60;98862.13;5206332;28;20182;-70
2022/06/05 11:35:17;;;;;;;9.07;2.55;;;;;;;24.77;61.30;98858.00;5220603;28;20060;-70
2022/06/05 11:38:31;;;;;;;7.75;2.47;;;;;;;24.74;60.96;98868.50;5219237;28;20057;-71
2022/06/05 11:41:29;;;;;;;9.73;2.63;;;;;;;24.53;61.63;98869.94;5217099;28;20195;-71
2022/06/05 11:44:45;;;;;;;3.95;2.25;;;;;;;24.74;61.00;98880.16;5221421;28;20110;-73
2022/06/05 11:47:53;;;;;;;9.60;2.60;;;;;;;24.75;60.79;98878.28;5221286;28;20055;-72
2022/06/05 11:51:02;;;;;;;6.60;2.83;;;;;;;24.39;61.29;98889.09;5206934;28;20155;-69
2022/06/05 11:54:13;;;;;;;7.68;2.80;;;;;;;24.31;62.31;98889.47;5221231;28;20307;-71
2022/06/05 11:57:27;;;;;;;8.60;2.92;;;;;;;24.69;62.81;98888.19;5220078;28;20114;-71
2022/06/05 12:00:25;;;;;;;4.65;2.60;;;;;;;25.38;57.98;98890.16;5222455;28;20068;-71
2022/06/05 12:03:23;;;;;;;6.22;2.50;;;;;;;25.05;58.33;98884.31;5220859;28;20068;-70
2022/06/05 12:06:25;;;;;;;7.60;3.03;;;;;;;25.17;59.10;98872.66;5193902;28;20049;-72
2022/06/05 12:09:22;;;;;;;5.35;2.70;;;;;;;25.34;58.08;98864.56;5222845;28;20061;-71
2022/06/05 12:12:20;;;;;;;4.85;2.42;;;;;;;25.66;57.83;98849.41;5221900;28;20059;-71
2022/06/05 12:15:13;;;;;;;8.65;2.90;;;;;;;25.89;56.08;98870.16;5206644;28;20134;-72
2022/06/05 12:18:18;;;;;;;4.72;2.50;;;;;;;25.50;56.67;98856.44;5207767;28;20052;-70
2022/06/05 12:21:27;;;;;;;7.57;2.65;;;;;;;25.22;56.38;98846.44;5223203;28;20149;-70
2022/06/05 12:24:30;;;;;;;4.93;2.13;;;;;;;25.41;58.97;98849.78;5223036;28;20115;-70
2022/06/05 12:27:21;;;;;;;5.70;3.38;;;;;;;24.88;59.55;98831.09;5223205;28;20446;-73
2022/06/05 12:30:21;;;;;;;9.00;2.60;;;;;;;25.62;58.15;98821.06;5222268;28;20053;-71
2022/06/05 12:33:13;;;;;;;3.40;2.50;;;;;;;25.50;57.66;98823.06;5222834;28;20549;-71
2022/06/05 12:36:17;;;;;;;5.05;2.60;;;;;;;25.16;58.58;98812.13;5223049;28;20079;-73
2022/06/05 12:39:37;;;;;;;4.13;2.40;;;;;;;24.91;59.25;98822.47;5207669;28;20052;-71
2022/06/05 12:42:41;;;;;;;8.18;2.20;;;;;;;25.13;58.06;98823.44;5206579;28;20053;-72
2022/06/05 12:45:38;;;;;;;4.82;2.45;;;;;;;25.20;57.96;98826.88;5218887;28;20057;-70
2022/06/05 12:48:32;;;;;;;6.90;2.03;;;;;;;25.55;56.53;98837.53;5207417;28;20190;-74
2022/06/05 12:51:27;;;;;;;3.97;1.75;;;;;;;25.73;57.89;98835.66;5208049;28;20583;-73
2022/06/05 12:54:28;;;;;;;5.65;1.88;;;;;;;25.57;56.94;98831.06;5220879;28;20064;-71
2022/06/05 12:57:48;;;;;;;5.05;1.80;;;;;;;25.12;57.73;98835.38;5207893;28;20055;-70
2022/06/05 13:00:56;;;;;;;5.00;2.30;;;;;;;25.50;58.44;98826.59;5217790;28;20099;-71
2022/06/05 13:03:52;;;;;;;6.00;1.95;;;;;;;25.78;57.39;98822.97;5218810;28;20068;-71
2022/06/05 13:07:09;;;;;;;5.57;1.80;;;;;;;26.59;54.32;98835.34;5208331;28;20045;-71
2022/06/05 13:10:16;;;;;;;5.93;1.92;;;;;;;26.16;57.13;98817.91;5219872;28;20108;-72
2022/06/05 13:13:23;;;;;;;4.97;1.77;;;;;;;25.89;55.88;98807.69;5222273;28;20056;-72
2022/06/05 13:16:27;;;;;;;7.45;1.90;;;;;;;25.27;57.68;98794.97;5218704;28;20473;-74
2022/06/05 13:19:27;;;;;;;4.90;2.15;;;;;;;25.29;57.62;98794.72;5221366;28;20190;-74
2022/06/05 13:22:44;;;;;;;8.10;2.30;;;;;;;25.37;57.84;98790.81;5220583;28;20048;-73
2022/06/05 13:25:55;;;;;;;8.02;2.10;;;;;;;25.40;56.49;98791.13;5195541;28;20064;-74
2022/06/05 13:29:18;;;;;;;5.93;1.80;;;;;;;25.35;57.03;98776.66;5220635;28;20738;-73
2022/06/05 13:32:14;;;;;;;10.35;2.35;;;;;;;25.33;57.42;98795.03;5213438;28;20064;-73
2022/06/05 13:35:30;;;;;;;5.97;2.13;;;;;;;25.78;56.35;98792.28;5194162;28;20053;-72
2022/06/05 13:38:29;;;;;;;10.20;2.25;;;;;;;26.07;55.21;98832.97;5222613;28;20806;-74
2022/06/05 13:41:36;;;;;;;8.70;2.10;;;;;;;25.57;52.72;98896.19;5208766;28;20194;-74
2022/06/05 13:44:33;;;;;;;7.70;1.17;;;;;;;22.29;60.35;98881.75;5224219;28;20051;-73
2022/06/05 13:47:44;;;;;;;2.58;0.98;;;;;;;22.86;59.01;98855.34;5220148;28;20491;-73
2022/06/05 13:50:41;;;;;;;1.92;1.20;;;;;;;22.78;58.98;98866.47;5208971;28;20056;-73
2022/06/05 13:53:46;;;;;;;2.25;0.90;;;;;;;22.62;60.35;98867.06;5209423;28;20037;-72
2022/06/05 13:56:36;;;;;;;3.50;1.00;;;;;;;23.35;58.90;98879.72;5223896;28;20429;-73
2022/06/05 13:59:39;;;;;;;4.15;1.13;;;;;;;23.40;57.34;98875.25;5216635;28;20066;-71
2022/06/05 14:02:40;;;;;;;3.10;1.15;;;;;;;23.28;57.88;98887.06;5223942;28;20143;-72